sensor_id;sensor_type;location;lat;lon;timestamp;P1;durP1;ratioP1;P2;durP2;ratioP2
37091;SDS011;23005;51.998;4.502;2022-12-29T00:00:51;7.33;;;3.13;;
37091;SDS011;23005;51.998;4.502;2022-12-29T00:02:12;7.45;;;3.08;;
37091;SDS011;23005;51.998;4.502;2022-12-29T00:03:32;4.37;;;2.97;;
37091;SDS011;23005;51.998;4.502;2022-12-29T00:04:53;8.10;;;3.00;;
37091;SDS011;23005;51.998;4.502;2022-12-29T00:06:14;6.82;;;3.10;;
37091;SDS011;23005;51.998;4.502;2022-12-29T00:07:34;5.38;;;2.83;;
37091;SDS011;23005;51.998;4.502;2022-12-29T00:08:55;5.25;;;2.75;;
37091;SDS011;23005;51.998;4.502;2022-12-29T00:10:15;5.00;;;3.20;;
37091;SDS011;23005;51.998;4.502;2022-12-29T00:11:36;6.83;;;2.77;;
37091;SDS011;23005;51.998;4.502;2022-12-29T00:12:58;8.90;;;3.17;;
37091;SDS011;23005;51.998;4.502;2022-12-29T00:14:18;7.07;;;2.60;;
37091;SDS011;23005;51.998;4.502;2022-12-29T00:15:44;7.03;;;2.70;;
37091;SDS011;23005;51.998;4.502;2022-12-29T00:17:05;10.48;;;2.90;;
37091;SDS011;23005;51.998;4.502;2022-12-29T00:18:26;4.68;;;2.65;;
37091;SDS011;23005;51.998;4.502;2022-12-29T00:19:47;5.55;;;2.75;;
37091;SDS011;23005;51.998;4.502;2022-12-29T00:21:07;6.50;;;2.22;;
37091;SDS011;23005;51.998;4.502;2022-12-29T00:22:31;7.68;;;2.97;;
37091;SDS011;23005;51.998;4.502;2022-12-29T00:25:13;8.35;;;2.90;;
37091;SDS011;23005;51.998;4.502;2022-12-29T00:26:33;5.57;;;2.40;;
37091;SDS011;23005;51.998;4.502;2022-12-29T00:27:54;5.05;;;2.45;;
37091;SDS011;23005;51.998;4.502;2022-12-29T00:29:15;6.63;;;2.40;;
37091;SDS011;23005;51.998;4.502;2022-12-29T00:30:37;7.35;;;2.78;;
37091;SDS011;23005;51.998;4.502;2022-12-29T00:31:57;7.05;;;2.88;;
37091;SDS011;23005;51.998;4.502;2022-12-29T00:33:19;5.70;;;2.53;;
37091;SDS011;23005;51.998;4.502;2022-12-29T00:34:40;9.98;;;2.58;;
37091;SDS011;23005;51.998;4.502;2022-12-29T00:36:01;5.43;;;2.22;;
37091;SDS011;23005;51.998;4.502;2022-12-29T00:37:23;8.60;;;2.47;;
37091;SDS011;23005;51.998;4.502;2022-12-29T00:38:45;6.70;;;2.30;;
37091;SDS011;23005;51.998;4.502;2022-12-29T00:40:09;6.55;;;2.35;;
37091;SDS011;23005;51.998;4.502;2022-12-29T00:41:29;5.63;;;2.08;;
37091;SDS011;23005;51.998;4.502;2022-12-29T00:42:50;10.70;;;2.40;;
37091;SDS011;23005;51.998;4.502;2022-12-29T00:44:11;5.53;;;2.72;;
37091;SDS011;23005;51.998;4.502;2022-12-29T00:45:34;6.72;;;2.30;;
37091;SDS011;23005;51.998;4.502;2022-12-29T00:46:55;8.05;;;2.40;;
37091;SDS011;23005;51.998;4.502;2022-12-29T00:48:15;6.97;;;2.58;;
37091;SDS011;23005;51.998;4.502;2022-12-29T00:49:36;6.07;;;2.80;;
37091;SDS011;23005;51.998;4.502;2022-12-29T00:50:56;5.03;;;2.50;;
37091;SDS011;23005;51.998;4.502;2022-12-29T00:52:17;5.07;;;2.60;;
37091;SDS011;23005;51.998;4.502;2022-12-29T00:53:37;5.53;;;2.35;;
37091;SDS011;23005;51.998;4.502;2022-12-29T00:54:58;9.25;;;2.45;;
37091;SDS011;23005;51.998;4.502;2022-12-29T00:56:18;5.97;;;2.30;;
37091;SDS011;23005;51.998;4.502;2022-12-29T00:57:39;7.03;;;2.58;;
37091;SDS011;23005;51.998;4.502;2022-12-29T00:59:00;5.90;;;2.47;;
37091;SDS011;23005;51.998;4.502;2022-12-29T01:00:20;3.78;;;2.22;;
37091;SDS011;23005;51.998;4.502;2022-12-29T01:01:42;9.00;;;2.50;;
37091;SDS011;23005;51.998;4.502;2022-12-29T01:03:03;6.50;;;2.63;;
37091;SDS011;23005;51.998;4.502;2022-12-29T01:04:24;8.40;;;2.70;;
37091;SDS011;23005;51.998;4.502;2022-12-29T01:05:45;5.82;;;2.40;;
37091;SDS011;23005;51.998;4.502;2022-12-29T01:07:06;5.93;;;2.70;;
37091;SDS011;23005;51.998;4.502;2022-12-29T01:08:26;5.38;;;2.45;;
37091;SDS011;23005;51.998;4.502;2022-12-29T01:09:47;4.10;;;2.30;;
37091;SDS011;23005;51.998;4.502;2022-12-29T01:11:08;5.80;;;2.35;;
37091;SDS011;23005;51.998;4.502;2022-12-29T01:12:32;6.20;;;2.38;;
37091;SDS011;23005;51.998;4.502;2022-12-29T01:13:52;6.15;;;2.58;;
37091;SDS011;23005;51.998;4.502;2022-12-29T01:15:14;6.70;;;2.78;;
37091;SDS011;23005;51.998;4.502;2022-12-29T01:16:35;6.30;;;2.85;;
37091;SDS011;23005;51.998;4.502;2022-12-29T01:17:57;4.30;;;2.30;;
37091;SDS011;23005;51.998;4.502;2022-12-29T01:19:18;8.60;;;2.70;;
37091;SDS011;23005;51.998;4.502;2022-12-29T01:20:39;6.93;;;2.78;;
37091;SDS011;23005;51.998;4.502;2022-12-29T01:21:59;4.60;;;2.80;;
37091;SDS011;23005;51.998;4.502;2022-12-29T01:23:20;12.70;;;3.10;;
37091;SDS011;23005;51.998;4.502;2022-12-29T01:24:40;5.70;;;2.60;;
37091;SDS011;23005;51.998;4.502;2022-12-29T01:26:07;8.52;;;2.85;;
37091;SDS011;23005;51.998;4.502;2022-12-29T01:27:28;11.45;;;3.90;;
37091;SDS011;23005;51.998;4.502;2022-12-29T01:28:49;8.90;;;3.22;;
37091;SDS011;23005;51.998;4.502;2022-12-29T01:30:10;6.03;;;2.85;;
37091;SDS011;23005;51.998;4.502;2022-12-29T01:31:31;6.63;;;3.75;;
37091;SDS011;23005;51.998;4.502;2022-12-29T01:32:51;5.75;;;3.10;;
37091;SDS011;23005;51.998;4.502;2022-12-29T01:34:13;9.90;;;3.50;;
37091;SDS011;23005;51.998;4.502;2022-12-29T01:35:34;8.20;;;3.30;;
37091;SDS011;23005;51.998;4.502;2022-12-29T01:36:55;7.70;;;2.80;;
37091;SDS011;23005;51.998;4.502;2022-12-29T01:38:16;7.88;;;3.30;;
37091;SDS011;23005;51.998;4.502;2022-12-29T01:39:36;8.40;;;2.67;;
37091;SDS011;23005;51.998;4.502;2022-12-29T01:40:57;6.28;;;2.92;;
37091;SDS011;23005;51.998;4.502;2022-12-29T01:42:18;8.60;;;3.03;;
37091;SDS011;23005;51.998;4.502;2022-12-29T01:43:41;6.72;;;3.65;;
37091;SDS011;23005;51.998;4.502;2022-12-29T01:45:02;8.40;;;2.83;;
37091;SDS011;23005;51.998;4.502;2022-12-29T01:46:26;7.30;;;2.63;;
37091;SDS011;23005;51.998;4.502;2022-12-29T01:47:50;10.23;;;2.50;;
37091;SDS011;23005;51.998;4.502;2022-12-29T01:49:15;7.47;;;2.08;;
37091;SDS011;23005;51.998;4.502;2022-12-29T01:50:37;11.55;;;2.40;;
37091;SDS011;23005;51.998;4.502;2022-12-29T01:52:01;8.35;;;2.22;;
37091;SDS011;23005;51.998;4.502;2022-12-29T01:53:25;10.23;;;2.22;;
37091;SDS011;23005;51.998;4.502;2022-12-29T01:54:48;9.45;;;2.17;;
37091;SDS011;23005;51.998;4.502;2022-12-29T01:56:11;5.28;;;1.77;;
37091;SDS011;23005;51.998;4.502;2022-12-29T01:57:36;11.50;;;2.38;;
37091;SDS011;23005;51.998;4.502;2022-12-29T01:59:00;9.00;;;2.15;;
37091;SDS011;23005;51.998;4.502;2022-12-29T02:00:22;12.63;;;1.85;;
37091;SDS011;23005;51.998;4.502;2022-12-29T02:01:42;10.65;;;1.98;;
37091;SDS011;23005;51.998;4.502;2022-12-29T02:03:03;10.50;;;2.30;;
37091;SDS011;23005;51.998;4.502;2022-12-29T02:04:26;7.30;;;1.75;;
37091;SDS011;23005;51.998;4.502;2022-12-29T02:05:47;10.65;;;1.80;;
37091;SDS011;23005;51.998;4.502;2022-12-29T02:07:13;11.77;;;2.13;;
37091;SDS011;23005;51.998;4.502;2022-12-29T02:08:37;14.82;;;1.95;;
37091;SDS011;23005;51.998;4.502;2022-12-29T02:09:59;17.10;;;2.28;;
37091;SDS011;23005;51.998;4.502;2022-12-29T02:11:21;11.93;;;2.10;;
37091;SDS011;23005;51.998;4.502;2022-12-29T02:12:43;12.23;;;2.10;;
37091;SDS011;23005;51.998;4.502;2022-12-29T02:14:08;10.73;;;2.08;;
37091;SDS011;23005;51.998;4.502;2022-12-29T02:15:31;16.50;;;2.22;;
37091;SDS011;23005;51.998;4.502;2022-12-29T02:17:03;12.13;;;2.17;;
37091;SDS011;23005;51.998;4.502;2022-12-29T02:18:32;8.55;;;2.00;;
37091;SDS011;23005;51.998;4.502;2022-12-29T02:20:11;11.98;;;2.03;;
37091;SDS011;23005;51.998;4.502;2022-12-29T02:21:47;13.10;;;1.88;;
37091;SDS011;23005;51.998;4.502;2022-12-29T02:23:36;13.65;;;2.10;;
37091;SDS011;23005;51.998;4.502;2022-12-29T02:27:12;13.05;;;2.40;;
37091;SDS011;23005;51.998;4.502;2022-12-29T02:31:02;11.38;;;2.08;;
37091;SDS011;23005;51.998;4.502;2022-12-29T02:32:27;9.75;;;1.80;;
37091;SDS011;23005;51.998;4.502;2022-12-29T02:33:52;12.68;;;2.63;;
37091;SDS011;23005;51.998;4.502;2022-12-29T02:35:20;12.93;;;1.95;;
37091;SDS011;23005;51.998;4.502;2022-12-29T02:36:46;10.95;;;2.22;;
37091;SDS011;23005;51.998;4.502;2022-12-29T02:38:13;16.17;;;2.20;;
37091;SDS011;23005;51.998;4.502;2022-12-29T02:39:37;12.40;;;2.00;;
37091;SDS011;23005;51.998;4.502;2022-12-29T02:41:02;7.82;;;1.80;;
37091;SDS011;23005;51.998;4.502;2022-12-29T02:42:29;13.13;;;2.50;;
37091;SDS011;23005;51.998;4.502;2022-12-29T02:43:54;13.15;;;2.30;;
37091;SDS011;23005;51.998;4.502;2022-12-29T02:45:20;18.58;;;2.72;;
37091;SDS011;23005;51.998;4.502;2022-12-29T02:46:44;16.00;;;1.95;;
37091;SDS011;23005;51.998;4.502;2022-12-29T02:48:08;16.90;;;2.45;;
37091;SDS011;23005;51.998;4.502;2022-12-29T02:49:34;19.00;;;3.10;;
37091;SDS011;23005;51.998;4.502;2022-12-29T02:50:59;16.40;;;2.30;;
37091;SDS011;23005;51.998;4.502;2022-12-29T02:52:22;16.05;;;2.40;;
37091;SDS011;23005;51.998;4.502;2022-12-29T02:53:45;25.52;;;3.58;;
37091;SDS011;23005;51.998;4.502;2022-12-29T02:55:05;17.58;;;3.05;;
37091;SDS011;23005;51.998;4.502;2022-12-29T02:56:26;16.42;;;2.92;;
37091;SDS011;23005;51.998;4.502;2022-12-29T02:57:46;18.20;;;3.25;;
37091;SDS011;23005;51.998;4.502;2022-12-29T02:59:07;28.88;;;2.72;;
37091;SDS011;23005;51.998;4.502;2022-12-29T03:00:28;15.52;;;2.42;;
37091;SDS011;23005;51.998;4.502;2022-12-29T03:02:06;22.30;;;3.37;;
37091;SDS011;23005;51.998;4.502;2022-12-29T03:03:35;22.98;;;2.95;;
37091;SDS011;23005;51.998;4.502;2022-12-29T03:05:06;31.55;;;4.15;;
37091;SDS011;23005;51.998;4.502;2022-12-29T03:06:35;19.00;;;3.28;;
37091;SDS011;23005;51.998;4.502;2022-12-29T03:08:04;15.98;;;2.88;;
37091;SDS011;23005;51.998;4.502;2022-12-29T03:09:33;19.88;;;2.55;;
37091;SDS011;23005;51.998;4.502;2022-12-29T03:10:59;17.33;;;2.67;;
37091;SDS011;23005;51.998;4.502;2022-12-29T03:12:23;20.67;;;2.58;;
37091;SDS011;23005;51.998;4.502;2022-12-29T03:13:47;20.52;;;2.80;;
37091;SDS011;23005;51.998;4.502;2022-12-29T03:15:10;20.23;;;3.03;;
37091;SDS011;23005;51.998;4.502;2022-12-29T03:16:34;12.75;;;2.25;;
37091;SDS011;23005;51.998;4.502;2022-12-29T03:18:02;23.92;;;2.58;;
37091;SDS011;23005;51.998;4.502;2022-12-29T03:19:25;15.60;;;2.83;;
37091;SDS011;23005;51.998;4.502;2022-12-29T03:20:49;11.07;;;2.42;;
37091;SDS011;23005;51.998;4.502;2022-12-29T03:22:14;17.75;;;2.72;;
37091;SDS011;23005;51.998;4.502;2022-12-29T03:23:39;15.63;;;2.50;;
37091;SDS011;23005;51.998;4.502;2022-12-29T03:25:03;17.85;;;2.92;;
37091;SDS011;23005;51.998;4.502;2022-12-29T03:26:25;14.45;;;2.88;;
37091;SDS011;23005;51.998;4.502;2022-12-29T03:27:48;18.50;;;2.65;;
37091;SDS011;23005;51.998;4.502;2022-12-29T03:29:10;15.43;;;2.67;;
37091;SDS011;23005;51.998;4.502;2022-12-29T03:30:31;8.63;;;2.10;;
37091;SDS011;23005;51.998;4.502;2022-12-29T03:31:53;13.65;;;2.28;;
37091;SDS011;23005;51.998;4.502;2022-12-29T03:33:18;11.10;;;2.42;;
37091;SDS011;23005;51.998;4.502;2022-12-29T03:34:42;12.68;;;1.95;;
37091;SDS011;23005;51.998;4.502;2022-12-29T03:36:04;14.90;;;1.95;;
37091;SDS011;23005;51.998;4.502;2022-12-29T03:37:28;15.65;;;2.17;;
37091;SDS011;23005;51.998;4.502;2022-12-29T03:38:50;17.00;;;2.38;;
37091;SDS011;23005;51.998;4.502;2022-12-29T03:40:15;12.63;;;2.17;;
37091;SDS011;23005;51.998;4.502;2022-12-29T03:42:57;17.25;;;2.33;;
37091;SDS011;23005;51.998;4.502;2022-12-29T03:44:18;12.80;;;2.25;;
37091;SDS011;23005;51.998;4.502;2022-12-29T03:45:38;11.63;;;1.90;;
37091;SDS011;23005;51.998;4.502;2022-12-29T03:46:59;21.52;;;3.30;;
37091;SDS011;23005;51.998;4.502;2022-12-29T03:48:21;15.02;;;2.78;;
37091;SDS011;23005;51.998;4.502;2022-12-29T03:49:42;18.75;;;2.50;;
37091;SDS011;23005;51.998;4.502;2022-12-29T03:51:02;14.77;;;2.33;;
37091;SDS011;23005;51.998;4.502;2022-12-29T03:52:23;12.95;;;2.47;;
37091;SDS011;23005;51.998;4.502;2022-12-29T03:53:43;13.30;;;2.37;;
37091;SDS011;23005;51.998;4.502;2022-12-29T03:55:04;15.63;;;2.75;;
37091;SDS011;23005;51.998;4.502;2022-12-29T03:56:26;18.92;;;3.63;;
37091;SDS011;23005;51.998;4.502;2022-12-29T03:57:47;17.35;;;2.30;;
37091;SDS011;23005;51.998;4.502;2022-12-29T03:59:07;13.32;;;2.10;;
37091;SDS011;23005;51.998;4.502;2022-12-29T04:00:28;16.48;;;2.88;;
37091;SDS011;23005;51.998;4.502;2022-12-29T04:01:49;16.90;;;2.70;;
37091;SDS011;23005;51.998;4.502;2022-12-29T04:03:09;16.85;;;2.58;;
37091;SDS011;23005;51.998;4.502;2022-12-29T04:04:31;20.88;;;2.72;;
37091;SDS011;23005;51.998;4.502;2022-12-29T04:05:52;22.83;;;3.03;;
37091;SDS011;23005;51.998;4.502;2022-12-29T04:07:12;13.82;;;3.00;;
37091;SDS011;23005;51.998;4.502;2022-12-29T04:08:33;19.73;;;2.90;;
37091;SDS011;23005;51.998;4.502;2022-12-29T04:09:53;19.90;;;2.90;;
37091;SDS011;23005;51.998;4.502;2022-12-29T04:11:14;12.88;;;2.83;;
37091;SDS011;23005;51.998;4.502;2022-12-29T04:12:35;25.77;;;3.60;;
37091;SDS011;23005;51.998;4.502;2022-12-29T04:13:55;31.70;;;4.60;;
37091;SDS011;23005;51.998;4.502;2022-12-29T04:15:15;29.05;;;4.43;;
37091;SDS011;23005;51.998;4.502;2022-12-29T04:16:37;24.90;;;4.10;;
37091;SDS011;23005;51.998;4.502;2022-12-29T04:17:57;25.15;;;3.95;;
37091;SDS011;23005;51.998;4.502;2022-12-29T04:19:18;21.92;;;3.70;;
37091;SDS011;23005;51.998;4.502;2022-12-29T04:20:40;26.88;;;3.65;;
37091;SDS011;23005;51.998;4.502;2022-12-29T04:22:00;27.02;;;3.75;;
37091;SDS011;23005;51.998;4.502;2022-12-29T04:23:21;19.48;;;2.80;;
37091;SDS011;23005;51.998;4.502;2022-12-29T04:24:41;25.80;;;3.22;;
37091;SDS011;23005;51.998;4.502;2022-12-29T04:26:02;27.27;;;3.50;;
37091;SDS011;23005;51.998;4.502;2022-12-29T04:27:22;19.83;;;2.92;;
37091;SDS011;23005;51.998;4.502;2022-12-29T04:28:43;23.33;;;3.37;;
37091;SDS011;23005;51.998;4.502;2022-12-29T04:30:04;23.17;;;3.17;;
37091;SDS011;23005;51.998;4.502;2022-12-29T04:31:26;22.02;;;3.08;;
37091;SDS011;23005;51.998;4.502;2022-12-29T04:32:46;22.97;;;3.10;;
37091;SDS011;23005;51.998;4.502;2022-12-29T04:34:07;23.08;;;3.10;;
37091;SDS011;23005;51.998;4.502;2022-12-29T04:35:27;25.88;;;3.28;;
37091;SDS011;23005;51.998;4.502;2022-12-29T04:36:49;15.27;;;2.42;;
37091;SDS011;23005;51.998;4.502;2022-12-29T04:38:10;21.60;;;2.67;;
37091;SDS011;23005;51.998;4.502;2022-12-29T04:39:31;20.27;;;2.50;;
37091;SDS011;23005;51.998;4.502;2022-12-29T04:40:52;22.02;;;3.17;;
37091;SDS011;23005;51.998;4.502;2022-12-29T04:42:13;16.92;;;2.75;;
37091;SDS011;23005;51.998;4.502;2022-12-29T04:43:33;19.63;;;2.65;;
37091;SDS011;23005;51.998;4.502;2022-12-29T04:44:54;14.10;;;2.42;;
37091;SDS011;23005;51.998;4.502;2022-12-29T04:46:15;12.93;;;2.58;;
37091;SDS011;23005;51.998;4.502;2022-12-29T04:47:37;14.25;;;2.55;;
37091;SDS011;23005;51.998;4.502;2022-12-29T04:48:57;21.33;;;3.65;;
37091;SDS011;23005;51.998;4.502;2022-12-29T04:50:18;14.03;;;2.57;;
37091;SDS011;23005;51.998;4.502;2022-12-29T04:51:38;26.25;;;3.30;;
37091;SDS011;23005;51.998;4.502;2022-12-29T04:53:00;22.65;;;3.45;;
37091;SDS011;23005;51.998;4.502;2022-12-29T04:54:20;24.30;;;4.43;;
37091;SDS011;23005;51.998;4.502;2022-12-29T04:55:41;20.23;;;3.23;;
37091;SDS011;23005;51.998;4.502;2022-12-29T04:57:02;18.30;;;3.05;;
37091;SDS011;23005;51.998;4.502;2022-12-29T04:58:25;23.25;;;3.40;;
37091;SDS011;23005;51.998;4.502;2022-12-29T04:59:46;18.23;;;3.17;;
37091;SDS011;23005;51.998;4.502;2022-12-29T05:01:07;24.50;;;3.70;;
37091;SDS011;23005;51.998;4.502;2022-12-29T05:02:27;22.05;;;3.63;;
37091;SDS011;23005;51.998;4.502;2022-12-29T05:03:49;20.58;;;2.80;;
37091;SDS011;23005;51.998;4.502;2022-12-29T05:05:10;30.67;;;4.20;;
37091;SDS011;23005;51.998;4.502;2022-12-29T05:06:31;26.25;;;3.80;;
37091;SDS011;23005;51.998;4.502;2022-12-29T05:07:52;21.35;;;4.07;;
37091;SDS011;23005;51.998;4.502;2022-12-29T05:09:13;33.60;;;4.13;;
37091;SDS011;23005;51.998;4.502;2022-12-29T05:10:36;36.70;;;4.70;;
37091;SDS011;23005;51.998;4.502;2022-12-29T05:11:59;32.58;;;4.57;;
37091;SDS011;23005;51.998;4.502;2022-12-29T05:13:19;35.17;;;4.50;;
37091;SDS011;23005;51.998;4.502;2022-12-29T05:14:40;34.47;;;4.28;;
37091;SDS011;23005;51.998;4.502;2022-12-29T05:16:01;36.85;;;4.82;;
37091;SDS011;23005;51.998;4.502;2022-12-29T05:17:21;31.98;;;4.95;;
37091;SDS011;23005;51.998;4.502;2022-12-29T05:18:42;30.47;;;4.03;;
37091;SDS011;23005;51.998;4.502;2022-12-29T05:20:03;32.83;;;3.78;;
37091;SDS011;23005;51.998;4.502;2022-12-29T05:21:24;32.35;;;4.75;;
37091;SDS011;23005;51.998;4.502;2022-12-29T05:22:45;29.30;;;4.43;;
37091;SDS011;23005;51.998;4.502;2022-12-29T05:24:05;29.00;;;3.65;;
37091;SDS011;23005;51.998;4.502;2022-12-29T05:25:28;28.48;;;4.28;;
37091;SDS011;23005;51.998;4.502;2022-12-29T05:26:48;27.08;;;3.97;;
37091;SDS011;23005;51.998;4.502;2022-12-29T05:28:09;35.17;;;4.45;;
37091;SDS011;23005;51.998;4.502;2022-12-29T05:29:30;33.37;;;5.07;;
37091;SDS011;23005;51.998;4.502;2022-12-29T05:30:51;28.63;;;3.95;;
37091;SDS011;23005;51.998;4.502;2022-12-29T05:32:11;31.92;;;4.57;;
37091;SDS011;23005;51.998;4.502;2022-12-29T05:33:32;31.73;;;4.65;;
37091;SDS011;23005;51.998;4.502;2022-12-29T05:34:52;33.13;;;4.38;;
37091;SDS011;23005;51.998;4.502;2022-12-29T05:36:13;29.17;;;4.63;;
37091;SDS011;23005;51.998;4.502;2022-12-29T05:37:34;30.63;;;4.63;;
37091;SDS011;23005;51.998;4.502;2022-12-29T05:38:54;26.65;;;4.25;;
37091;SDS011;23005;51.998;4.502;2022-12-29T05:40:15;34.63;;;4.88;;
37091;SDS011;23005;51.998;4.502;2022-12-29T05:41:37;23.90;;;3.72;;
37091;SDS011;23005;51.998;4.502;2022-12-29T05:42:57;32.13;;;4.57;;
37091;SDS011;23005;51.998;4.502;2022-12-29T05:44:18;32.63;;;4.55;;
37091;SDS011;23005;51.998;4.502;2022-12-29T05:45:38;36.90;;;4.55;;
37091;SDS011;23005;51.998;4.502;2022-12-29T05:46:59;40.53;;;5.70;;
37091;SDS011;23005;51.998;4.502;2022-12-29T05:48:20;38.78;;;4.40;;
37091;SDS011;23005;51.998;4.502;2022-12-29T05:49:41;45.65;;;5.43;;
37091;SDS011;23005;51.998;4.502;2022-12-29T05:51:02;37.17;;;4.97;;
37091;SDS011;23005;51.998;4.502;2022-12-29T05:52:22;38.83;;;5.15;;
37091;SDS011;23005;51.998;4.502;2022-12-29T05:53:43;40.20;;;4.68;;
37091;SDS011;23005;51.998;4.502;2022-12-29T05:55:04;39.55;;;4.55;;
37091;SDS011;23005;51.998;4.502;2022-12-29T05:56:25;41.40;;;6.25;;
37091;SDS011;23005;51.998;4.502;2022-12-29T05:57:47;42.27;;;4.60;;
37091;SDS011;23005;51.998;4.502;2022-12-29T05:59:08;29.98;;;4.18;;
37091;SDS011;23005;51.998;4.502;2022-12-29T06:00:28;36.70;;;4.50;;
37091;SDS011;23005;51.998;4.502;2022-12-29T06:01:49;39.88;;;5.00;;
37091;SDS011;23005;51.998;4.502;2022-12-29T06:03:09;38.80;;;5.50;;
37091;SDS011;23005;51.998;4.502;2022-12-29T06:04:30;36.10;;;4.55;;
37091;SDS011;23005;51.998;4.502;2022-12-29T06:05:51;34.05;;;4.95;;
37091;SDS011;23005;51.998;4.502;2022-12-29T06:07:12;31.63;;;4.18;;
37091;SDS011;23005;51.998;4.502;2022-12-29T06:08:32;35.15;;;5.80;;
37091;SDS011;23005;51.998;4.502;2022-12-29T06:09:53;36.90;;;4.60;;
37091;SDS011;23005;51.998;4.502;2022-12-29T06:11:13;41.40;;;5.47;;
37091;SDS011;23005;51.998;4.502;2022-12-29T06:12:33;34.90;;;4.05;;
37091;SDS011;23005;51.998;4.502;2022-12-29T06:13:56;44.60;;;5.88;;
37091;SDS011;23005;51.998;4.502;2022-12-29T06:15:16;37.75;;;4.55;;
37091;SDS011;23005;51.998;4.502;2022-12-29T06:16:37;32.22;;;4.10;;
37091;SDS011;23005;51.998;4.502;2022-12-29T06:17:57;31.00;;;4.68;;
37091;SDS011;23005;51.998;4.502;2022-12-29T06:19:18;40.97;;;4.70;;
37091;SDS011;23005;51.998;4.502;2022-12-29T06:20:38;27.40;;;5.15;;
37091;SDS011;23005;51.998;4.502;2022-12-29T06:21:59;42.20;;;4.22;;
37091;SDS011;23005;51.998;4.502;2022-12-29T06:23:20;35.65;;;5.22;;
37091;SDS011;23005;51.998;4.502;2022-12-29T06:24:40;34.92;;;4.65;;
37091;SDS011;23005;51.998;4.502;2022-12-29T06:26:01;38.63;;;4.78;;
37091;SDS011;23005;51.998;4.502;2022-12-29T06:27:22;39.70;;;4.88;;
37091;SDS011;23005;51.998;4.502;2022-12-29T06:28:42;28.05;;;3.90;;
37091;SDS011;23005;51.998;4.502;2022-12-29T06:30:04;36.13;;;4.25;;
37091;SDS011;23005;51.998;4.502;2022-12-29T06:31:29;33.88;;;4.53;;
37091;SDS011;23005;51.998;4.502;2022-12-29T06:32:49;29.92;;;4.35;;
37091;SDS011;23005;51.998;4.502;2022-12-29T06:34:11;37.28;;;5.03;;
37091;SDS011;23005;51.998;4.502;2022-12-29T06:35:31;34.10;;;5.50;;
37091;SDS011;23005;51.998;4.502;2022-12-29T06:36:52;34.20;;;5.07;;
37091;SDS011;23005;51.998;4.502;2022-12-29T06:38:13;45.47;;;5.10;;
37091;SDS011;23005;51.998;4.502;2022-12-29T06:39:33;34.65;;;5.05;;
37091;SDS011;23005;51.998;4.502;2022-12-29T06:40:54;40.90;;;4.82;;
37091;SDS011;23005;51.998;4.502;2022-12-29T06:42:14;38.60;;;5.67;;
37091;SDS011;23005;51.998;4.502;2022-12-29T06:43:35;37.22;;;6.20;;
37091;SDS011;23005;51.998;4.502;2022-12-29T06:44:56;28.02;;;5.10;;
37091;SDS011;23005;51.998;4.502;2022-12-29T06:46:18;35.85;;;4.55;;
37091;SDS011;23005;51.998;4.502;2022-12-29T06:47:39;40.33;;;4.75;;
37091;SDS011;23005;51.998;4.502;2022-12-29T06:48:59;22.65;;;3.75;;
37091;SDS011;23005;51.998;4.502;2022-12-29T06:50:20;26.00;;;3.70;;
37091;SDS011;23005;51.998;4.502;2022-12-29T06:51:40;32.42;;;4.53;;
37091;SDS011;23005;51.998;4.502;2022-12-29T06:53:01;25.33;;;3.55;;
37091;SDS011;23005;51.998;4.502;2022-12-29T06:54:22;31.30;;;3.90;;
37091;SDS011;23005;51.998;4.502;2022-12-29T06:55:42;23.23;;;2.97;;
37091;SDS011;23005;51.998;4.502;2022-12-29T06:57:03;28.50;;;3.70;;
37091;SDS011;23005;51.998;4.502;2022-12-29T06:58:23;17.13;;;2.78;;
37091;SDS011;23005;51.998;4.502;2022-12-29T06:59:44;23.98;;;4.07;;
37091;SDS011;23005;51.998;4.502;2022-12-29T07:01:05;25.42;;;4.43;;
37091;SDS011;23005;51.998;4.502;2022-12-29T07:02:27;27.85;;;3.70;;
37091;SDS011;23005;51.998;4.502;2022-12-29T07:03:48;18.75;;;3.10;;
37091;SDS011;23005;51.998;4.502;2022-12-29T07:05:08;25.17;;;3.83;;
37091;SDS011;23005;51.998;4.502;2022-12-29T07:06:29;18.23;;;3.25;;
37091;SDS011;23005;51.998;4.502;2022-12-29T07:07:49;23.42;;;3.50;;
37091;SDS011;23005;51.998;4.502;2022-12-29T07:09:10;24.85;;;3.83;;
37091;SDS011;23005;51.998;4.502;2022-12-29T07:10:31;29.85;;;3.97;;
37091;SDS011;23005;51.998;4.502;2022-12-29T07:11:52;26.65;;;3.78;;
37091;SDS011;23005;51.998;4.502;2022-12-29T07:13:12;28.00;;;3.70;;
37091;SDS011;23005;51.998;4.502;2022-12-29T07:14:33;32.27;;;3.67;;
37091;SDS011;23005;51.998;4.502;2022-12-29T07:16:04;29.33;;;4.43;;
37091;SDS011;23005;51.998;4.502;2022-12-29T07:17:27;24.15;;;3.33;;
37091;SDS011;23005;51.998;4.502;2022-12-29T07:18:48;19.92;;;3.17;;
37091;SDS011;23005;51.998;4.502;2022-12-29T07:20:08;19.60;;;3.72;;
37091;SDS011;23005;51.998;4.502;2022-12-29T07:21:29;25.60;;;4.10;;
37091;SDS011;23005;51.998;4.502;2022-12-29T07:22:50;31.15;;;4.03;;
37091;SDS011;23005;51.998;4.502;2022-12-29T07:24:10;30.02;;;3.50;;
37091;SDS011;23005;51.998;4.502;2022-12-29T07:25:31;30.58;;;4.50;;
37091;SDS011;23005;51.998;4.502;2022-12-29T07:26:52;24.10;;;3.35;;
37091;SDS011;23005;51.998;4.502;2022-12-29T07:28:12;30.38;;;4.32;;
37091;SDS011;23005;51.998;4.502;2022-12-29T07:29:33;33.55;;;4.30;;
37091;SDS011;23005;51.998;4.502;2022-12-29T07:30:53;31.73;;;4.32;;
37091;SDS011;23005;51.998;4.502;2022-12-29T07:32:14;35.20;;;3.60;;
37091;SDS011;23005;51.998;4.502;2022-12-29T07:33:36;27.60;;;4.63;;
37091;SDS011;23005;51.998;4.502;2022-12-29T07:34:56;30.85;;;4.50;;
37091;SDS011;23005;51.998;4.502;2022-12-29T07:36:17;39.20;;;4.88;;
37091;SDS011;23005;51.998;4.502;2022-12-29T07:37:37;42.17;;;4.50;;
37091;SDS011;23005;51.998;4.502;2022-12-29T07:38:57;34.15;;;4.22;;
37091;SDS011;23005;51.998;4.502;2022-12-29T07:40:18;27.20;;;4.20;;
37091;SDS011;23005;51.998;4.502;2022-12-29T07:41:39;32.70;;;4.40;;
37091;SDS011;23005;51.998;4.502;2022-12-29T07:42:59;27.25;;;3.92;;
37091;SDS011;23005;51.998;4.502;2022-12-29T07:44:20;37.33;;;5.07;;
37091;SDS011;23005;51.998;4.502;2022-12-29T07:45:40;36.67;;;4.15;;
37091;SDS011;23005;51.998;4.502;2022-12-29T07:47:00;27.38;;;4.85;;
37091;SDS011;23005;51.998;4.502;2022-12-29T07:48:21;28.00;;;4.43;;
37091;SDS011;23005;51.998;4.502;2022-12-29T07:49:43;22.00;;;3.88;;
37091;SDS011;23005;51.998;4.502;2022-12-29T07:51:04;35.97;;;4.32;;
37091;SDS011;23005;51.998;4.502;2022-12-29T07:52:24;29.52;;;4.57;;
37091;SDS011;23005;51.998;4.502;2022-12-29T07:53:44;40.13;;;4.45;;
37091;SDS011;23005;51.998;4.502;2022-12-29T07:55:06;33.17;;;4.30;;
37091;SDS011;23005;51.998;4.502;2022-12-29T07:56:27;45.35;;;5.20;;
37091;SDS011;23005;51.998;4.502;2022-12-29T07:57:47;35.55;;;4.80;;
37091;SDS011;23005;51.998;4.502;2022-12-29T07:59:08;31.58;;;3.90;;
37091;SDS011;23005;51.998;4.502;2022-12-29T08:00:29;31.80;;;4.32;;
37091;SDS011;23005;51.998;4.502;2022-12-29T08:01:49;42.63;;;5.90;;
37091;SDS011;23005;51.998;4.502;2022-12-29T08:03:09;37.13;;;4.25;;
37091;SDS011;23005;51.998;4.502;2022-12-29T08:04:30;31.27;;;4.60;;
37091;SDS011;23005;51.998;4.502;2022-12-29T08:05:52;39.30;;;5.03;;
37091;SDS011;23005;51.998;4.502;2022-12-29T08:07:12;39.20;;;5.20;;
37091;SDS011;23005;51.998;4.502;2022-12-29T08:08:33;38.50;;;5.20;;
37091;SDS011;23005;51.998;4.502;2022-12-29T08:09:53;38.20;;;4.88;;
37091;SDS011;23005;51.998;4.502;2022-12-29T08:11:14;28.77;;;4.50;;
37091;SDS011;23005;51.998;4.502;2022-12-29T08:12:34;38.28;;;4.70;;
37091;SDS011;23005;51.998;4.502;2022-12-29T08:13:54;36.33;;;4.75;;
37091;SDS011;23005;51.998;4.502;2022-12-29T08:15:15;46.65;;;7.20;;